KEWR/EWR METAR and TAF weather

Enter ICAO airport designator
Station Type Date Time Source
KEWR METAR 2021/09/23 16:51 UTC NOAA

KEWR 231651Z 14014G25KT 10SM FEW016 SCT027 OVC070 27/21 A2992 RMK AO2 PK WND 11029/1615 SLP130 T02670211


Station Type Date Time Source
KEWR Decoded METAR 2021/09/23 16:51 UTC NOAA

NEWARK INTERNATIONAL AIRPORT, NJ, United States (KEWR) 40-41N 74-10W 7M
Sep 23, 2021 - 12:51 PM EDT / 2021.09.23 1651 UTC
Wind: from the SE (140 degrees) at 16 MPH (14 KT) gusting to 29 MPH (25 KT):0
Visibility: 10 mile(s):0
Sky conditions: overcast
Temperature: 80.1 F (26.7 C)
Dew Point: 70.0 F (21.1 C)
Relative Humidity: 71%
Pressure (altimeter): 29.92 in. Hg (1013 hPa)
ob: KEWR 231651Z 14014G25KT 10SM FEW016 SCT027 OVC070 27/21 A2992 RMK AO2 PK WND 11029/1615 SLP130 T02670211
cycle: 17

Station Type Date Time Source
KEWR TAF 2021/09/23 18:24 UTC NOAA

TAF KEWR 231723Z 2318/2424 14013G25KT P6SM BKN015 OVC030
FM232100 14012G22KT P6SM -SHRA FEW010 OVC025
FM232300 18009KT 5SM SHRA BR BKN009 OVC012
TEMPO 2400/2404 2SM +TSRA BR BKN009CB
FM240700 32007KT P6SM -SHRA OVC020
FM241400 31008KT P6SM OVC035
FM241800 27008KT P6SM SCT050 SCT250

Example: see airport list